Time;durP1;ratioP1;P1;durP2;ratioP2;P2;SDS_P1;SDS_P2;PMS_P1;PMS_P2;Temp;Humidity;BMP_temperature;BMP_pressure;BME280_temperature;BME280_humidity;BME280_pressure;Samples;Min_cycle;Max_cycle;Signal;HPM_P1;HPM_P2
2024/01/24 00:01:49;;;;;;;1.63;1.50;;;8.20;99.90;;;8.56;100.00;98583.00;5031035;28;20519;-81
2024/01/24 00:04:17;;;;;;;1.43;1.20;;;8.20;99.90;;;8.58;100.00;98585.44;5029608;28;20472;-81
2024/01/24 00:06:46;;;;;;;1.07;1.00;;;8.20;99.90;;;8.64;100.00;98597.03;5030289;28;20497;-81
2024/01/24 00:09:15;;;;;;;1.80;0.93;;;8.20;99.90;;;8.65;100.00;98583.81;5031099;28;20468;-81
2024/01/24 00:11:43;;;;;;;1.37;1.00;;;8.30;99.90;;;8.68;100.00;98587.91;5031008;28;20493;-81
2024/01/24 00:14:12;;;;;;;2.20;1.10;;;8.30;99.90;;;8.67;100.00;98596.69;5031147;28;21317;-81
2024/01/24 00:16:41;;;;;;;0.90;0.90;;;8.30;99.90;;;8.70;100.00;98596.38;5031370;28;20467;-81
2024/01/24 00:19:11;;;;;;;1.10;1.00;;;8.40;99.90;;;8.71;100.00;98608.44;5029345;28;20469;-81
2024/01/24 00:21:40;;;;;;;1.07;1.00;;;8.30;99.90;;;8.73;100.00;98590.84;5031069;28;20941;-80
2024/01/24 00:24:08;;;;;;;1.07;0.97;;;8.40;99.90;;;8.71;100.00;98582.38;5036848;28;20472;-81
2024/01/24 00:26:38;;;;;;;1.07;0.83;;;8.30;99.90;;;8.73;100.00;98588.22;5037141;28;20469;-81
2024/01/24 00:29:07;;;;;;;1.53;1.10;;;8.30;99.90;;;8.73;100.00;98585.63;5033599;28;20832;-80
2024/01/24 00:31:36;;;;;;;0.97;0.87;;;8.40;99.90;;;8.73;100.00;98583.00;5031667;28;20465;-81
2024/01/24 00:34:04;;;;;;;1.53;0.90;;;8.40;99.90;;;8.75;100.00;98584.47;5034077;28;20497;-80
2024/01/24 00:36:34;;;;;;;1.17;0.80;;;8.40;99.90;;;8.75;100.00;98574.03;5034083;28;20523;-81
2024/01/24 00:39:03;;;;;;;0.83;0.83;;;8.40;99.90;;;8.78;100.00;98555.47;5039606;28;20453;-81
2024/01/24 00:41:32;;;;;;;2.60;0.97;;;8.40;99.90;;;8.79;100.00;98561.50;5034440;28;20551;-81
2024/01/24 00:44:04;;;;;;;1.73;0.80;;;8.30;99.90;;;8.79;100.00;98564.91;5033091;28;20481;-81
2024/01/24 00:46:42;;;;;;;4.00;0.90;;;8.30;99.90;;;8.81;100.00;98556.94;5031295;28;21019;-81
2024/01/24 00:49:13;;;;;;;1.97;1.30;;;8.40;99.90;;;8.80;100.00;98558.72;5030890;28;20462;-81
2024/01/24 00:51:46;;;;;;;0.80;0.80;;;8.40;99.90;;;8.83;100.00;98557.59;5035484;28;20456;-81
2024/01/24 00:54:14;;;;;;;0.90;0.80;;;8.50;99.90;;;8.83;100.00;98568.00;5032869;28;21019;-81
2024/01/24 00:56:43;;;;;;;0.90;0.80;;;8.40;99.90;;;8.83;100.00;98561.00;5032429;28;20545;-81
2024/01/24 00:59:11;;;;;;;1.43;0.80;;;8.40;99.90;;;8.85;100.00;98553.03;5032060;28;20850;-81
2024/01/24 01:01:40;;;;;;;2.27;0.93;;;8.40;99.90;;;8.88;100.00;98558.75;5033459;28;20472;-81
2024/01/24 01:04:08;;;;;;;2.03;1.13;;;8.50;99.90;;;8.87;100.00;98556.28;5034390;28;20575;-81
2024/01/24 01:06:38;;;;;;;0.97;0.93;;;8.50;99.90;;;8.87;100.00;98549.28;5034236;28;20558;-81
2024/01/24 01:09:08;;;;;;;0.70;0.70;;;8.50;99.90;;;8.87;100.00;98540.63;5033482;28;20458;-80
2024/01/24 01:11:38;;;;;;;0.87;0.83;;;8.50;99.90;;;8.86;100.00;98550.25;5032918;28;20470;-80
2024/01/24 01:14:07;;;;;;;2.73;0.90;;;8.50;99.90;;;8.87;100.00;98549.28;5033144;28;20486;-80
2024/01/24 01:16:35;;;;;;;0.93;0.80;;;8.50;99.90;;;8.89;100.00;98549.09;5032923;28;20488;-81
2024/01/24 01:19:03;;;;;;;1.27;0.90;;;8.50;99.90;;;8.87;100.00;98553.69;5035072;28;20483;-81
2024/01/24 01:21:32;;;;;;;1.00;0.73;;;8.50;99.90;;;8.86;100.00;98550.25;5031149;28;20465;-82
2024/01/24 01:24:01;;;;;;;1.70;1.00;;;8.50;99.90;;;8.89;100.00;98549.09;5033432;28;20454;-81
2024/01/24 01:26:32;;;;;;;1.00;0.80;;;8.50;99.90;;;8.91;100.00;98552.38;5033983;28;20496;-80
2024/01/24 01:29:01;;;;;;;1.67;0.80;;;8.50;99.90;;;8.91;100.00;98557.59;5032943;28;20462;-81
2024/01/24 01:31:30;;;;;;;0.90;0.80;;;8.50;99.90;;;8.90;100.00;98548.94;5032018;28;20465;-81
2024/01/24 01:34:00;;;;;;;0.70;0.70;;;8.40;99.90;;;8.94;100.00;98541.63;5032182;28;20505;-80
2024/01/24 01:36:29;;;;;;;1.10;0.80;;;8.50;99.90;;;8.92;100.00;98533.94;5032579;28;20542;-81
2024/01/24 01:38:58;;;;;;;0.80;0.77;;;8.50;99.90;;;8.94;100.00;98537.22;5031516;28;20491;-81
2024/01/24 01:41:27;;;;;;;1.03;0.80;;;8.50;99.90;;;8.95;100.00;98549.28;5032763;28;20474;-81
2024/01/24 01:43:57;;;;;;;0.80;0.80;;;8.50;99.90;;;8.98;100.00;98543.75;5031546;28;20477;-81
2024/01/24 01:46:28;;;;;;;2.20;1.00;;;8.60;99.90;;;8.99;100.00;98552.34;5033903;28;21018;-81
2024/01/24 01:48:58;;;;;;;1.20;0.80;;;8.60;99.90;;;8.99;100.00;98528.88;5033056;28;20462;-81
2024/01/24 01:51:28;;;;;;;1.17;0.90;;;8.60;99.90;;;9.00;100.00;98533.13;5032955;28;20458;-81
2024/01/24 01:53:58;;;;;;;1.20;0.93;;;8.60;99.90;;;9.02;100.00;98528.56;5030380;28;20540;-80
2024/01/24 01:56:30;;;;;;;1.40;0.90;;;8.60;99.90;;;9.02;100.00;98528.56;5049516;28;20477;-81
2024/01/24 01:59:00;;;;;;;0.77;0.77;;;8.60;99.90;;;9.02;100.00;98523.34;5032727;28;20466;-81
2024/01/24 02:01:28;;;;;;;0.80;0.73;;;8.60;99.90;;;9.00;100.00;98510.47;5029417;28;21013;-80
2024/01/24 02:03:57;;;;;;;1.20;0.90;;;8.60;99.90;;;9.03;100.00;98499.69;5029951;28;20461;-80
2024/01/24 02:06:26;;;;;;;0.90;0.90;;;8.70;99.90;;;9.04;100.00;98492.69;5033649;28;20522;-81
2024/01/24 02:08:55;;;;;;;1.23;1.10;;;8.70;99.90;;;9.05;100.00;98507.38;5033514;28;21263;-81
2024/01/24 02:11:26;;;;;;;0.90;0.80;;;8.60;99.90;;;9.01;100.00;98509.50;5031055;28;20470;-81
2024/01/24 02:14:00;;;;;;;0.80;0.80;;;8.60;99.90;;;9.03;100.00;98494.47;5033712;28;20683;-81
2024/01/24 02:16:29;;;;;;;0.80;0.80;;;8.60;99.90;;;9.06;100.00;98506.38;5034469;28;20488;-81
2024/01/24 02:18:57;;;;;;;0.80;0.70;;;8.60;99.90;;;9.05;100.00;98491.72;5032909;28;20964;-81
2024/01/24 02:21:26;;;;;;;2.27;1.00;;;8.60;99.90;;;9.04;100.00;98490.91;5032460;28;20485;-81
2024/01/24 02:23:59;;;;;;;0.70;0.60;;;8.60;99.90;;;9.08;100.00;98494.00;5034738;28;20469;-81
2024/01/24 02:26:29;;;;;;;1.50;0.73;;;8.70;99.90;;;9.11;100.00;98491.06;5032615;28;20538;-81
2024/01/24 02:28:58;;;;;;;0.80;0.73;;;8.70;99.90;;;9.12;100.00;98484.84;5031863;28;20465;-81
2024/01/24 02:31:26;;;;;;;0.70;0.70;;;8.70;99.90;;;9.17;100.00;98485.16;5032014;28;20818;-81
2024/01/24 02:33:55;;;;;;;0.80;0.80;;;8.80;99.90;;;9.18;100.00;98484.19;5028814;28;21060;-81
2024/01/24 02:36:23;;;;;;;0.80;0.70;;;8.80;99.90;;;9.20;100.00;98477.00;5031765;28;20462;-81
2024/01/24 02:38:52;;;;;;;0.70;0.70;;;8.80;99.90;;;9.22;100.00;98482.88;5031869;28;20500;-81
2024/01/24 02:41:26;;;;;;;2.30;0.83;;;8.90;99.90;;;9.24;100.00;98480.91;5029906;28;20466;-81
2024/01/24 02:44:01;;;;;;;0.70;0.70;;;8.80;99.90;;;9.26;100.00;98473.75;5034094;28;20798;-81
2024/01/24 02:46:30;;;;;;;0.97;0.80;;;8.80;99.90;;;9.29;100.00;98472.56;5033049;28;20461;-80
2024/01/24 02:48:58;;;;;;;0.70;0.60;;;8.90;99.90;;;9.32;100.00;98446.13;5031921;28;21026;-81
2024/01/24 02:51:28;;;;;;;0.70;0.60;;;8.90;99.90;;;9.32;100.00;98446.13;5029028;28;20478;-81
2024/01/24 02:53:57;;;;;;;1.00;0.60;;;8.90;99.90;;;9.35;100.00;98446.63;5033404;28;20481;-81
2024/01/24 02:56:26;;;;;;;4.93;0.80;;;8.90;99.90;;;9.41;100.00;98430.28;5029883;28;20484;-81
2024/01/24 02:58:54;;;;;;;0.80;0.70;;;9.10;99.90;;;9.44;100.00;98424.72;5030727;28;21127;-80
2024/01/24 03:01:24;;;;;;;1.67;0.70;;;9.10;99.90;;;9.57;100.00;98429.41;5032004;28;20466;-80
2024/01/24 03:03:53;;;;;;;0.80;0.60;;;9.30;99.90;;;9.63;100.00;98420.06;5030786;28;20477;-81
2024/01/24 03:06:28;;;;;;;0.73;0.63;;;9.30;99.90;;;9.65;100.00;98413.66;5031876;28;20478;-81
2024/01/24 03:08:57;;;;;;;0.80;0.63;;;9.30;99.90;;;9.65;100.00;98418.09;5032824;28;20460;-81
2024/01/24 03:11:26;;;;;;;0.80;0.60;;;9.30;99.90;;;9.67;100.00;98423.94;5031856;28;20466;-80
2024/01/24 03:13:54;;;;;;;0.70;0.60;;;9.30;99.90;;;9.79;100.00;98422.59;5029504;28;20557;-81
2024/01/24 03:16:24;;;;;;;0.70;0.60;;;9.50;99.90;;;9.84;100.00;98413.25;5031736;28;20505;-81
2024/01/24 03:18:53;;;;;;;0.70;0.60;;;9.50;99.90;;;9.86;100.00;98416.47;5032732;28;20473;-81
2024/01/24 03:21:22;;;;;;;0.70;0.60;;;9.50;99.90;;;9.89;100.00;98428.41;5031367;28;20750;-81
2024/01/24 03:23:51;;;;;;;0.70;0.60;;;9.50;99.90;;;9.90;100.00;98424.78;5032789;28;20539;-81
2024/01/24 03:26:20;;;;;;;0.70;0.60;;;9.50;99.90;;;9.88;100.00;98395.44;5031555;28;20457;-81
2024/01/24 03:28:49;;;;;;;1.17;0.70;;;9.50;99.90;;;9.95;100.00;98407.63;5030942;28;21002;-81
2024/01/24 03:31:18;;;;;;;0.70;0.67;;;9.60;99.90;;;9.97;100.00;98415.25;5030332;28;20523;-81
2024/01/24 03:33:52;;;;;;;1.00;0.60;;;9.70;99.90;;;9.99;100.00;98408.91;5032667;28;20489;-81
2024/01/24 03:36:21;;;;;;;0.80;0.80;;;9.70;99.90;;;10.01;100.00;98393.84;5030464;28;20496;-81
2024/01/24 03:38:50;;;;;;;3.17;0.90;;;9.70;99.90;;;10.03;100.00;98384.03;5030155;28;20855;-81
2024/01/24 03:41:19;;;;;;;0.70;0.60;;;9.70;99.90;;;10.07;100.00;98393.16;5029391;28;20557;-81
2024/01/24 03:43:50;;;;;;;1.37;0.70;;;9.80;99.90;;;10.07;100.00;98400.16;5031304;28;21066;-81
2024/01/24 03:46:29;;;;;;;0.70;0.60;;;9.70;99.90;;;10.05;100.00;98376.03;5029862;28;20458;-81
2024/01/24 03:48:59;;;;;;;0.70;0.70;;;9.70;99.90;;;10.13;100.00;98389.03;5028112;28;20505;-81
2024/01/24 03:51:28;;;;;;;0.70;0.60;;;9.70;99.90;;;10.15;100.00;98396.72;5029746;28;20791;-81
2024/01/24 03:53:57;;;;;;;0.70;0.60;;;9.80;99.90;;;10.24;100.00;98393.06;5031039;28;20469;-81
2024/01/24 03:56:25;;;;;;;0.70;0.70;;;9.90;99.90;;;10.25;100.00;98382.44;5031928;28;21064;-81
2024/01/24 03:58:54;;;;;;;0.70;0.60;;;9.80;99.90;;;10.28;100.00;98376.84;5034235;28;20464;-81
2024/01/24 04:01:22;;;;;;;0.70;0.60;;;9.90;99.90;;;10.29;100.00;98362.78;5031625;28;21043;-80
2024/01/24 04:03:51;;;;;;;0.80;0.60;;;9.90;99.90;;;10.32;100.00;98367.66;5034155;28;20466;-81
2024/01/24 04:06:25;;;;;;;0.77;0.70;;;10.00;99.90;;;10.35;100.00;98362.06;5033359;28;20469;-80
2024/01/24 04:08:54;;;;;;;0.80;0.70;;;10.00;99.90;;;10.42;100.00;98376.06;5037112;28;20456;-81
2024/01/24 04:11:23;;;;;;;0.80;0.70;;;10.10;99.90;;;10.51;100.00;98366.34;5031878;28;20469;-81
2024/01/24 04:13:53;;;;;;;0.70;0.60;;;10.20;99.90;;;10.49;100.00;98374.34;5032698;28;20493;-81
2024/01/24 04:16:22;;;;;;;0.80;0.70;;;10.20;99.90;;;10.50;100.00;98365.53;5029030;28;20531;-81
2024/01/24 04:18:51;;;;;;;69.17;52.93;;;10.10;99.90;;;10.48;100.00;98361.47;5032719;28;20492;-81
2024/01/24 04:21:21;;;;;;;0.70;0.70;;;10.10;99.90;;;10.52;100.00;98374.00;5030993;28;20560;-82
2024/01/24 04:23:50;;;;;;;0.70;0.60;;;10.20;99.90;;;10.56;100.00;98369.22;5032285;28;20526;-80
2024/01/24 04:26:22;;;;;;;0.80;0.70;;;10.20;99.90;;;10.62;100.00;98378.19;5035601;28;20457;-80
2024/01/24 04:28:50;;;;;;;5.80;0.70;;;10.30;99.90;;;10.66;100.00;98389.88;5033218;28;20458;-80
2024/01/24 04:31:19;;;;;;;0.80;0.60;;;10.30;99.90;;;10.72;100.00;98383.97;5036370;28;20459;-80
2024/01/24 04:33:48;;;;;;;0.80;0.70;;;10.40;99.90;;;10.72;100.00;98373.50;5032260;28;20484;-80
2024/01/24 04:36:16;;;;;;;0.70;0.60;;;10.40;99.90;;;10.75;100.00;98362.66;5034149;28;20501;-80
2024/01/24 04:38:47;;;;;;;3.43;2.77;;;10.40;99.90;;;10.73;100.00;98372.47;5033052;28;20661;-82
2024/01/24 04:41:15;;;;;;;1.00;0.60;;;10.40;99.90;;;10.83;100.00;98380.91;5030502;28;20453;-80
2024/01/24 04:43:44;;;;;;;5.70;0.70;;;10.50;99.90;;;10.83;100.00;98366.00;5031611;28;20482;-80
2024/01/24 04:46:16;;;;;;;0.70;0.70;;;10.50;99.90;;;10.89;100.00;98354.00;5031699;28;20454;-80
2024/01/24 04:48:45;;;;;;;0.70;0.67;;;10.50;99.90;;;10.94;100.00;98360.31;5031910;28;20462;-80
2024/01/24 04:51:14;;;;;;;0.80;0.67;;;10.50;99.90;;;10.98;100.00;98379.06;5034484;28;20480;-80
2024/01/24 04:53:43;;;;;;;0.80;0.60;;;10.60;99.90;;;11.02;100.00;98369.88;5033354;28;20469;-79
2024/01/24 04:56:14;;;;;;;1.27;0.80;;;10.60;99.90;;;10.99;100.00;98355.34;5033080;28;20908;-79
2024/01/24 04:58:42;;;;;;;2.30;1.30;;;10.60;99.90;;;11.00;100.00;98356.19;5035243;28;20530;-79
2024/01/24 05:01:11;;;;;;;0.90;0.80;;;10.60;99.90;;;11.01;100.00;98347.31;5030782;28;25037;-79
2024/01/24 05:03:40;;;;;;;2.00;1.70;;;10.70;99.90;;;11.03;100.00;98348.78;5032869;28;21143;-81
2024/01/24 05:06:09;;;;;;;0.70;0.60;;;10.70;99.90;;;11.06;100.00;98353.63;5036040;28;20916;-79
2024/01/24 05:08:39;;;;;;;0.70;0.63;;;10.70;99.90;;;11.12;100.00;98344.22;5033102;28;20643;-80
2024/01/24 05:11:10;;;;;;;0.80;0.70;;;10.80;99.90;;;11.13;100.00;98339.81;5033032;28;20873;-79
2024/01/24 05:13:41;;;;;;;0.70;0.70;;;10.80;99.90;;;11.13;100.00;98343.25;5032582;28;20875;-79
2024/01/24 05:16:10;;;;;;;1.20;0.80;;;10.70;99.90;;;11.16;100.00;98342.06;5032257;28;20474;-79
2024/01/24 05:18:39;;;;;;;1.47;0.83;;;10.80;99.90;;;11.18;100.00;98340.88;5031343;28;20510;-79
2024/01/24 05:21:08;;;;;;;7.03;0.80;;;10.80;99.90;;;11.21;100.00;98364.06;5031329;28;20455;-79
2024/01/24 05:23:40;;;;;;;0.80;0.70;;;10.80;99.90;;;11.23;100.00;98356.84;5033031;28;20531;-79
2024/01/24 05:26:09;;;;;;;1.77;0.70;;;10.80;99.90;;;11.27;100.00;98371.22;5033036;28;20462;-79
2024/01/24 05:28:41;;;;;;;0.70;0.60;;;10.80;99.90;;;11.28;100.00;98367.56;5033055;28;20465;-79
2024/01/24 05:31:10;;;;;;;0.80;0.70;;;10.90;99.90;;;11.30;100.00;98370.03;5030241;28;20463;-80
2024/01/24 05:33:38;;;;;;;0.80;0.70;;;10.90;99.90;;;11.30;100.00;98372.63;5037458;28;20485;-80
2024/01/24 05:36:07;;;;;;;0.80;0.70;;;10.90;99.90;;;11.32;100.00;98358.38;5038023;28;20500;-79
2024/01/24 05:38:38;;;;;;;1.00;0.80;;;11.00;99.90;;;11.32;100.00;98355.75;5036794;28;20457;-79
2024/01/24 05:41:06;;;;;;;0.80;0.70;;;11.00;99.90;;;11.32;100.00;98340.03;5036448;28;20442;-79
2024/01/24 05:43:35;;;;;;;0.70;0.60;;;10.90;99.90;;;11.34;100.00;98353.78;5039148;28;20474;-80
2024/01/24 05:46:05;;;;;;;1.30;0.70;;;10.90;99.90;;;11.37;100.00;98352.59;5034534;28;20527;-80
2024/01/24 05:48:33;;;;;;;0.70;0.60;;;10.90;99.90;;;11.38;100.00;98354.22;5035025;28;21097;-80
2024/01/24 05:51:04;;;;;;;1.10;0.90;;;10.90;99.90;;;11.40;100.00;98346.97;5035801;28;20477;-80
2024/01/24 05:53:33;;;;;;;0.70;0.70;;;11.00;99.90;;;11.43;100.00;98343.97;5034419;28;20485;-80
2024/01/24 05:56:01;;;;;;;0.70;0.67;;;11.00;99.90;;;11.41;100.00;98341.56;5035136;28;20489;-81
2024/01/24 05:58:31;;;;;;;1.00;0.73;;;11.00;99.90;;;11.45;100.00;98350.66;5037119;28;20473;-81
2024/01/24 06:00:59;;;;;;;1.20;0.77;;;11.00;99.90;;;11.45;100.00;98366.38;5037740;28;20469;-81
2024/01/24 06:03:29;;;;;;;1.20;0.70;;;11.10;99.90;;;11.47;100.00;98358.34;5034627;28;20976;-80
2024/01/24 06:05:58;;;;;;;1.10;0.80;;;11.10;99.90;;;11.46;100.00;98368.00;5035074;28;20467;-81
2024/01/24 06:08:26;;;;;;;0.77;0.73;;;11.10;99.90;;;11.49;100.00;98372.84;5037042;28;20558;-80
2024/01/24 06:10:55;;;;;;;0.80;0.70;;;11.10;99.90;;;11.45;100.00;98382.06;5036108;28;20899;-80
2024/01/24 06:13:24;;;;;;;1.87;0.70;;;11.10;99.90;;;11.45;100.00;98371.59;5035817;28;20469;-80
2024/01/24 06:15:53;;;;;;;0.80;0.70;;;11.10;99.90;;;11.48;100.00;98391.38;5035307;28;20465;-80
2024/01/24 06:18:21;;;;;;;0.90;0.70;;;11.20;99.90;;;11.51;100.00;98388.41;5034435;28;20474;-80
2024/01/24 06:20:51;;;;;;;0.80;0.70;;;11.10;99.90;;;11.51;100.00;98385.78;5036909;28;20462;-80
2024/01/24 06:23:20;;;;;;;0.83;0.73;;;11.10;99.90;;;11.52;100.00;98377.72;5034245;28;20461;-80
2024/01/24 06:25:48;;;;;;;1.87;0.70;;;11.10;99.90;;;11.52;100.00;98393.44;5037648;28;20474;-80
2024/01/24 06:28:17;;;;;;;0.70;0.63;;;11.10;99.90;;;11.53;100.00;98383.78;5037395;28;20469;-80
2024/01/24 06:30:47;;;;;;;0.80;0.70;;;11.10;99.90;;;11.54;100.00;98378.38;5036110;28;20453;-80
2024/01/24 06:33:15;;;;;;;1.37;0.70;;;11.20;99.90;;;11.57;100.00;98375.38;5037022;28;20490;-80
2024/01/24 06:35:44;;;;;;;0.70;0.70;;;11.20;99.90;;;11.63;100.00;98375.66;5034866;28;20465;-80
2024/01/24 06:38:14;;;;;;;0.70;0.70;;;11.20;99.90;;;11.63;100.00;98385.09;5035773;28;20502;-80
2024/01/24 06:40:43;;;;;;;0.70;0.70;;;11.20;99.90;;;11.63;100.00;98400.81;5038643;28;20524;-80
2024/01/24 06:43:14;;;;;;;0.70;0.60;;;11.20;99.90;;;11.63;100.00;98412.31;5036460;28;20719;-80
2024/01/24 06:45:43;;;;;;;0.70;0.70;;;11.30;99.90;;;11.67;100.00;98421.41;5036765;28;20450;-79
2024/01/24 06:48:11;;;;;;;0.70;0.67;;;11.20;99.90;;;11.67;100.00;98411.75;5036234;28;20473;-80
2024/01/24 06:50:40;;;;;;;0.70;0.70;;;11.40;99.90;;;11.68;100.00;98418.63;5037148;28;20474;-79
2024/01/24 06:53:10;;;;;;;0.90;0.80;;;11.30;99.90;;;11.73;100.00;98416.25;5034629;28;20546;-80
2024/01/24 06:55:40;;;;;;;1.67;0.73;;;11.20;99.90;;;11.75;100.00;98416.91;5035209;28;20458;-81
2024/01/24 06:58:09;;;;;;;1.47;0.90;;;11.30;99.90;;;11.74;100.00;98438.03;5037156;28;20493;-80
2024/01/24 07:00:38;;;;;;;0.70;0.70;;;11.40;99.90;;;11.73;100.00;98436.44;5037420;28;20470;-81
2024/01/24 07:03:07;;;;;;;0.80;0.70;;;11.40;99.90;;;11.78;100.00;98434.06;5036126;28;20581;-80
2024/01/24 07:05:35;;;;;;;0.90;0.70;;;11.50;99.90;;;11.79;100.00;98435.69;5035935;28;20990;-80
2024/01/24 07:08:04;;;;;;;0.90;0.70;;;11.40;99.90;;;11.78;100.00;98449.78;5035857;28;20469;-80
2024/01/24 07:10:33;;;;;;;1.00;0.70;;;11.40;99.90;;;11.75;100.00;98440.50;5033941;28;20469;-80
2024/01/24 07:13:03;;;;;;;2.23;0.77;;;11.40;99.90;;;11.74;100.00;98448.53;5035816;28;20887;-81
2024/01/24 07:15:32;;;;;;;3.00;0.77;;;11.40;99.90;;;11.72;100.00;98433.00;5036360;28;20905;-80
2024/01/24 07:18:00;;;;;;;2.13;0.80;;;11.40;99.90;;;11.73;100.00;98442.47;5037425;28;21105;-80
2024/01/24 07:20:29;;;;;;;1.60;0.80;;;11.30;99.90;;;11.71;100.00;98448.91;5037242;28;20550;-81
2024/01/24 07:22:58;;;;;;;1.03;0.77;;;11.40;99.90;;;11.72;100.00;98455.78;5037909;28;20937;-80
2024/01/24 07:25:26;;;;;;;1.40;0.70;;;11.40;99.90;;;11.75;100.00;98465.88;5036230;28;20470;-80
2024/01/24 07:27:55;;;;;;;0.80;0.70;;;11.40;99.90;;;11.80;100.00;98505.44;5035857;28;20810;-80
2024/01/24 07:30:25;;;;;;;2.90;0.90;;;11.40;99.90;;;11.76;100.00;98523.34;5036694;28;20968;-80
2024/01/24 07:32:54;;;;;;;1.17;0.80;;;11.40;99.90;;;11.73;100.00;98507.97;5036744;28;20950;-81
2024/01/24 07:35:23;;;;;;;1.40;0.80;;;11.40;99.90;;;11.79;100.00;98530.84;5036956;28;20832;-81
2024/01/24 07:37:51;;;;;;;2.10;0.90;;;11.50;99.90;;;11.78;100.00;98528.38;5036363;28;20505;-81
2024/01/24 07:40:20;;;;;;;1.47;1.00;;;11.50;99.90;;;11.75;100.00;98544.47;5036793;28;22096;-80
2024/01/24 07:42:49;;;;;;;1.73;0.90;;;11.50;99.90;;;11.74;100.00;98538.41;5035865;28;20832;-80
2024/01/24 07:45:18;;;;;;;5.50;0.87;;;11.40;99.90;;;11.72;100.00;98543.03;5036634;28;20458;-81
2024/01/24 07:47:50;;;;;;;7.20;1.20;;;11.30;99.90;;;11.70;100.00;98552.84;5037068;28;20473;-80
2024/01/24 07:50:20;;;;;;;0.90;0.80;;;11.30;99.90;;;11.71;100.00;98551.88;5036448;28;20484;-81
2024/01/24 07:52:52;;;;;;;1.10;0.80;;;11.30;99.90;;;11.72;100.00;98556.13;5035695;28;20476;-80
2024/01/24 07:55:21;;;;;;;0.90;0.70;;;11.30;99.90;;;11.72;100.00;98544.84;5035031;28;20469;-80
2024/01/24 07:58:04;;;;;;;1.30;0.80;;;11.30;99.90;;;11.66;100.00;98548.16;5040954;28;20499;-81
2024/01/24 08:00:33;;;;;;;4.60;0.97;;;11.30;99.90;;;11.68;100.00;98573.19;5036534;28;20457;-81
2024/01/24 08:03:03;;;;;;;0.80;0.70;;;11.20;99.90;;;11.69;100.00;98581.84;5039168;28;20458;-81
2024/01/24 08:05:32;;;;;;;2.40;0.77;;;11.30;99.90;;;11.71;100.00;98564.97;5034958;28;20477;-80
2024/01/24 08:08:01;;;;;;;2.10;0.80;;;11.30;99.90;;;11.72;100.00;98573.66;5038615;28;20517;-80
2024/01/24 08:10:30;;;;;;;0.80;0.70;;;11.30;99.90;;;11.69;100.00;98566.13;5038642;28;20461;-81
2024/01/24 08:13:00;;;;;;;0.90;0.80;;;11.30;99.90;;;11.69;100.00;98574.00;5034468;28;20465;-81
2024/01/24 08:15:29;;;;;;;0.70;0.60;;;11.30;99.90;;;11.68;100.00;98585.47;5035106;28;20553;-80
2024/01/24 08:17:58;;;;;;;0.80;0.70;;;11.30;99.90;;;11.68;100.00;98585.47;5035053;28;20496;-81
2024/01/24 08:20:27;;;;;;;1.10;0.80;;;11.30;99.90;;;11.64;100.00;98605.97;5036066;28;20536;-81
2024/01/24 08:22:56;;;;;;;1.17;0.70;;;11.30;99.90;;;11.63;100.00;98614.00;5031455;28;20472;-80
2024/01/24 08:25:25;;;;;;;1.73;0.70;;;11.30;99.90;;;11.64;100.00;98621.69;5032929;28;20806;-80
2024/01/24 08:27:54;;;;;;;2.83;1.20;;;11.30;99.90;;;11.65;100.00;98627.72;5036028;28;20461;-81
2024/01/24 08:30:23;;;;;;;2.60;1.00;;;11.30;99.90;;;11.63;100.00;98639.19;5037990;28;20483;-80
2024/01/24 08:32:51;;;;;;;1.27;0.93;;;11.20;99.90;;;11.65;100.00;98659.16;5035071;28;20988;-81
2024/01/24 08:35:21;;;;;;;2.10;0.90;;;11.30;99.90;;;11.66;100.00;98655.56;5034599;28;20470;-80
2024/01/24 08:37:51;;;;;;;3.63;1.10;;;11.30;99.90;;;11.68;100.00;98680.59;5033037;28;20498;-81
2024/01/24 08:40:21;;;;;;;1.63;0.90;;;11.30;99.90;;;11.70;100.00;98683.84;5036864;28;20541;-81
2024/01/24 08:42:49;;;;;;;1.77;1.00;;;11.30;99.90;;;11.70;100.00;98683.03;5038979;28;20458;-80
2024/01/24 08:45:18;;;;;;;2.60;1.13;;;11.30;99.90;;;11.72;100.00;98662.75;5040162;28;20474;-80
2024/01/24 08:47:46;;;;;;;2.03;1.20;;;11.30;99.90;;;11.68;100.00;98657.00;5039761;28;21078;-80
2024/01/24 08:50:15;;;;;;;1.00;0.83;;;11.30;99.90;;;11.70;100.00;98667.31;5035996;28;20475;-78
2024/01/24 08:52:44;;;;;;;2.00;1.07;;;11.30;99.90;;;11.66;100.00;98673.91;5041642;28;20498;-81
2024/01/24 08:55:15;;;;;;;2.33;1.00;;;11.30;99.90;;;11.65;100.00;98675.72;5039345;28;20461;-80
2024/01/24 08:57:44;;;;;;;2.10;1.07;;;11.30;99.90;;;11.67;100.00;98683.38;5039429;28;20489;-80
2024/01/24 09:00:15;;;;;;;4.27;1.10;;;11.20;99.90;;;11.66;100.00;98679.97;5036362;28;20473;-80
2024/01/24 09:02:44;;;;;;;3.53;1.20;;;11.20;99.90;;;11.66;100.00;98702.72;5035448;28;20480;-80
2024/01/24 09:05:12;;;;;;;3.73;1.20;;;11.30;99.90;;;11.65;100.00;98685.38;5035079;28;20990;-80
2024/01/24 09:07:42;;;;;;;10.10;1.40;;;11.20;99.90;;;11.64;100.00;98679.31;5040467;28;20476;-80
2024/01/24 09:10:13;;;;;;;2.30;0.87;;;11.30;99.90;;;11.65;100.00;98712.38;5039022;28;20472;-81
2024/01/24 09:12:41;;;;;;;8.43;1.43;;;11.20;99.90;;;11.69;100.00;98704.97;5042605;28;20523;-80
2024/01/24 09:15:10;;;;;;;2.37;1.20;;;11.40;99.90;;;11.69;100.00;98702.38;5039877;28;20462;-80
2024/01/24 09:17:39;;;;;;;4.90;1.20;;;11.40;99.90;;;11.69;100.00;98710.22;5037791;28;20470;-82
2024/01/24 09:20:09;;;;;;;3.60;1.20;;;11.30;99.90;;;11.69;100.00;98724.16;5037410;28;20990;-81
2024/01/24 09:22:38;;;;;;;8.40;1.30;;;11.20;99.90;;;11.68;100.00;98698.09;5038396;28;21030;-81
2024/01/24 09:25:08;;;;;;;6.73;1.20;;;11.20;99.90;;;11.69;100.00;98729.38;5034769;28;20489;-81
2024/01/24 09:27:41;;;;;;;5.30;1.17;;;11.30;99.90;;;11.69;100.00;98739.03;5038293;28;20507;-81
2024/01/24 09:30:11;;;;;;;4.37;1.47;;;11.20;99.90;;;11.70;100.00;98762.44;5040224;28;20497;-81
2024/01/24 09:32:39;;;;;;;6.20;1.47;;;11.30;99.90;;;11.68;100.00;98768.84;5040487;28;20532;-81
2024/01/24 09:35:09;;;;;;;11.40;2.00;;;11.30;99.90;;;11.69;100.00;98755.59;5037292;28;20465;-81
2024/01/24 09:37:38;;;;;;;5.80;1.43;;;11.30;99.90;;;11.70;100.00;98767.66;5038750;28;20512;-81
2024/01/24 09:40:11;;;;;;;5.00;1.20;;;11.30;99.90;;;11.74;100.00;98776.03;5037509;28;20465;-81
2024/01/24 09:42:44;;;;;;;5.97;1.67;;;11.30;99.90;;;11.74;100.00;98763.75;5039094;28;20863;-81
2024/01/24 09:45:17;;;;;;;14.17;2.27;;;11.30;99.90;;;11.75;100.00;98743.59;5036766;28;20497;-81
2024/01/24 09:47:48;;;;;;;6.93;1.60;;;11.30;99.90;;;11.71;100.00;98752.81;5037547;28;20457;-81
2024/01/24 09:50:17;;;;;;;4.67;1.50;;;11.30;99.90;;;11.71;100.00;98747.56;5037589;28;20468;-81
2024/01/24 09:52:46;;;;;;;11.00;2.70;;;11.30;99.90;;;11.68;100.00;98746.09;5037018;28;20470;-81
2024/01/24 09:55:20;;;;;;;3.00;1.70;;;11.30;99.90;;;11.67;100.00;98761.97;5038840;28;20468;-81
2024/01/24 09:57:50;;;;;;;5.03;2.13;;;11.20;99.90;;;11.67;100.00;98749.69;5037777;28;20477;-81
2024/01/24 10:00:19;;;;;;;9.40;1.90;;;11.30;99.90;;;11.68;100.00;98782.75;5035653;28;20472;-81
2024/01/24 10:02:49;;;;;;;14.73;1.97;;;11.40;99.90;;;11.69;100.00;98784.41;5036540;28;20497;-80
2024/01/24 10:05:20;;;;;;;6.00;1.80;;;11.30;99.90;;;11.69;100.00;98784.41;5038650;28;20535;-81
2024/01/24 10:07:48;;;;;;;8.97;3.37;;;11.40;99.90;;;11.67;100.00;98786.38;5033204;28;20458;-81
2024/01/24 10:10:17;;;;;;;9.53;2.20;;;11.30;99.90;;;11.68;100.00;98792.41;5037103;28;20988;-80
2024/01/24 10:12:46;;;;;;;12.63;1.90;;;11.20;99.90;;;11.66;100.00;98773.47;5035943;28;20473;-81
2024/01/24 10:15:16;;;;;;;6.20;2.07;;;11.20;99.90;;;11.65;100.00;98790.97;5036321;28;20964;-81
2024/01/24 10:17:46;;;;;;;8.73;1.90;;;11.20;99.90;;;11.67;100.00;98790.78;5036771;28;20462;-81
2024/01/24 10:20:15;;;;;;;10.57;2.50;;;11.20;99.90;;;11.68;100.00;98795.03;5035305;28;20485;-81
2024/01/24 10:22:44;;;;;;;8.03;1.97;;;11.20;99.90;;;11.70;100.00;98779.97;5035074;28;20835;-81
2024/01/24 10:25:13;;;;;;;7.03;1.90;;;11.40;99.90;;;11.71;100.00;98794.72;5037430;28;20485;-81
2024/01/24 10:27:42;;;;;;;5.43;1.57;;;11.30;99.90;;;11.70;100.00;98795.69;5039986;28;20461;-81